createdAt,value
2022-11-17T00:00:18.425Z,72.86
2022-11-17T00:02:45.599Z,73.88
2022-11-17T00:05:12.151Z,76.32
2022-11-17T00:07:38.835Z,76.75
2022-11-17T00:10:08.529Z,76.21
2022-11-17T00:12:56.938Z,77.13
2022-11-17T00:15:23.545Z,77.08
2022-11-17T00:18:10.080Z,76.27
2022-11-17T00:21:00.876Z,76.58
2022-11-17T00:23:46.999Z,76.85
2022-11-17T00:26:18.974Z,76.38
2022-11-17T00:28:45.888Z,76.88
2022-11-17T00:31:32.709Z,76.77
2022-11-17T00:34:09.123Z,77.05
2022-11-17T00:36:43.584Z,77.77
2022-11-17T00:39:11.207Z,77.26
2022-11-17T00:41:40.600Z,77.48
2022-11-17T00:44:10.594Z,77.32
2022-11-17T00:46:43.693Z,76.95
2022-11-17T00:49:11.527Z,76.93
2022-11-17T00:51:41.229Z,75.94
2022-11-17T00:54:13.367Z,76.58
2022-11-17T00:56:40.484Z,77.08
2022-11-17T00:59:10.177Z,75.98
2022-11-17T01:01:40.832Z,75.78
2022-11-17T01:04:10.325Z,75.43
2022-11-17T01:06:41.731Z,74.68
2022-11-17T01:09:23.036Z,74.25
2022-11-17T01:11:51.938Z,74.78
2022-11-17T01:14:23.759Z,73.98
2022-11-17T01:16:50.972Z,75.25
2022-11-17T01:19:19.152Z,74.39
2022-11-17T01:21:46.832Z,73.63
2022-11-17T01:24:16.121Z,74.97
2022-11-17T01:26:44.367Z,76.13
2022-11-17T01:29:17.112Z,75.79
2022-11-17T01:31:44.920Z,75.21
2022-11-17T01:34:12.241Z,74.51
2022-11-17T01:37:00.685Z,75.67
2022-11-17T01:39:29.218Z,73.97
2022-11-17T01:41:56.806Z,73.55
2022-11-17T01:44:41.821Z,74.45
2022-11-17T01:47:18.718Z,74.34
2022-11-17T01:49:45.813Z,74.33
2022-11-17T01:52:13.637Z,73.74
2022-11-17T01:54:43.835Z,73.88
2022-11-17T01:57:25.888Z,73.36
2022-11-17T01:59:59.248Z,72.22
2022-11-17T02:02:26.157Z,71.22
2022-11-17T02:05:48.224Z,70.90
2022-11-17T02:08:15.443Z,70.16
2022-11-17T02:10:51.303Z,69.77
2022-11-17T02:13:20.412Z,70.34
2022-11-17T02:15:47.047Z,67.95
2022-11-17T02:18:15.209Z,67.44
2022-11-17T02:20:51.412Z,67.37
2022-11-17T02:23:37.976Z,67.51
2022-11-17T02:26:07.454Z,66.81
2022-11-17T02:29:00.025Z,66.35
2022-11-17T02:32:03.049Z,67.04
2022-11-17T02:34:58.707Z,68.00
2022-11-17T02:37:52.414Z,67.15
2022-11-17T02:40:24.843Z,67.30
2022-11-17T02:43:17.663Z,68.46
2022-11-17T02:45:48.618Z,67.03
2022-11-17T02:48:22.318Z,67.60
2022-11-17T02:50:49.785Z,67.10
2022-11-17T02:53:16.716Z,68.24
2022-11-17T02:55:50.363Z,67.51
2022-11-17T02:58:16.888Z,67.83
2022-11-17T03:01:06.617Z,68.21
2022-11-17T03:03:54.718Z,68.59
2022-11-17T03:06:24.184Z,68.82
2022-11-17T03:09:06.217Z,69.28
2022-11-17T03:11:52.521Z,69.85
2022-11-17T03:14:52.095Z,68.53
2022-11-17T03:17:30.501Z,69.79
2022-11-17T03:20:16.693Z,69.34
2022-11-17T03:22:48.692Z,69.68
2022-11-17T03:25:23.164Z,69.81
2022-11-17T03:27:55.676Z,69.69
2022-11-17T03:30:24.476Z,69.02
2022-11-17T03:32:56.902Z,69.67
2022-11-17T03:35:27.498Z,69.57
2022-11-17T03:37:59.023Z,69.85
2022-11-17T03:40:29.333Z,69.56
2022-11-17T03:42:59.835Z,70.34
2022-11-17T03:45:34.037Z,70.62
2022-11-17T03:48:23.429Z,70.89
2022-11-17T03:51:04.637Z,70.08
2022-11-17T03:53:32.102Z,70.22
2022-11-17T03:56:36.465Z,70.34
2022-11-17T03:59:18.494Z,70.17
2022-11-17T04:01:45.103Z,71.09
2022-11-17T04:04:20.062Z,70.85
2022-11-17T04:06:48.684Z,71.47
2022-11-17T04:09:17.673Z,71.68
2022-11-17T04:12:09.672Z,71.06
2022-11-17T04:14:54.410Z,71.34
2022-11-17T04:17:21.287Z,71.65
2022-11-17T04:19:49.645Z,72.44
2022-11-17T04:22:16.119Z,71.77
2022-11-17T04:24:42.598Z,71.26
2022-11-17T04:27:27.948Z,71.75
2022-11-17T04:29:54.488Z,71.49
2022-11-17T04:32:20.982Z,71.28
2022-11-17T04:34:50.549Z,72.18
2022-11-17T04:37:23.332Z,72.34
2022-11-17T04:39:52.290Z,72.82
2022-11-17T04:42:21.537Z,72.56
2022-11-17T04:44:48.038Z,72.12
2022-11-17T04:47:14.748Z,72.02
2022-11-17T04:49:41.339Z,72.67
2022-11-17T04:52:08.001Z,72.52
2022-11-17T04:54:34.916Z,72.20
2022-11-17T04:57:01.445Z,72.26
2022-11-17T04:59:28.070Z,71.76
2022-11-17T05:01:54.595Z,73.01
2022-11-17T05:04:40.779Z,72.53
2022-11-17T05:07:08.661Z,73.47
2022-11-17T05:09:35.314Z,72.96
2022-11-17T05:12:22.525Z,72.68
2022-11-17T05:14:52.887Z,72.33
2022-11-17T05:17:19.417Z,72.85
2022-11-17T05:19:48.360Z,73.71
2022-11-17T05:22:38.784Z,73.09
2022-11-17T05:25:06.395Z,73.27
2022-11-17T05:27:34.090Z,73.71
2022-11-17T05:30:01.654Z,73.51
2022-11-17T05:32:28.193Z,73.04
2022-11-17T05:34:54.761Z,73.04
2022-11-17T05:37:21.970Z,73.75
2022-11-17T05:39:48.452Z,73.03
2022-11-17T05:42:15.056Z,73.43
2022-11-17T05:44:41.570Z,72.67
2022-11-17T05:47:08.070Z,73.27
2022-11-17T05:49:34.579Z,72.97
2022-11-17T05:52:01.062Z,72.26
2022-11-17T05:54:27.707Z,71.97
2022-11-17T05:57:06.991Z,72.08
2022-11-17T05:59:45.297Z,72.85
2022-11-17T06:02:17.488Z,72.64
2022-11-17T06:04:44.291Z,73.43
2022-11-17T06:07:11.165Z,72.90
2022-11-17T06:09:41.462Z,73.64
2022-11-17T06:12:08.573Z,74.59
2022-11-17T06:14:35.684Z,75.29
2022-11-17T06:17:07.626Z,75.89
2022-11-17T06:19:39.981Z,77.05
2022-11-17T06:22:12.599Z,77.20
2022-11-17T06:24:44.648Z,76.30
2022-11-17T06:27:14.159Z,77.15
2022-11-17T06:29:44.620Z,77.86
2022-11-17T06:32:14.673Z,78.17
2022-11-17T06:34:47.004Z,76.83
2022-11-17T06:37:17.733Z,76.77
2022-11-17T06:39:44.908Z,76.53
2022-11-17T06:42:12.110Z,76.24
2022-11-17T06:44:39.289Z,75.59
2022-11-17T06:47:06.054Z,75.46
2022-11-17T06:49:32.553Z,76.02
2022-11-17T06:51:59.071Z,75.55
2022-11-17T06:54:27.856Z,76.12
2022-11-17T06:56:57.558Z,75.11
2022-11-17T06:59:24.131Z,75.99
2022-11-17T07:01:50.692Z,75.93
2022-11-17T07:04:17.459Z,75.62
2022-11-17T07:06:44.010Z,75.18
2022-11-17T07:09:10.535Z,75.37
2022-11-17T07:11:37.185Z,74.41
2022-11-17T07:14:03.868Z,73.99
2022-11-17T07:16:31.112Z,74.14
2022-11-17T07:18:59.538Z,73.82
2022-11-17T07:21:26.361Z,73.65
2022-11-17T07:23:52.932Z,73.83
2022-11-17T07:26:19.506Z,73.24
2022-11-17T07:28:46.036Z,72.96
2022-11-17T07:31:12.604Z,73.04
2022-11-17T07:33:41.117Z,73.08
2022-11-17T07:36:10.752Z,74.32
2022-11-17T07:38:39.079Z,75.39
2022-11-17T07:41:07.015Z,78.33
2022-11-17T07:43:34.967Z,79.06
2022-11-17T07:46:06.673Z,79.34
2022-11-17T07:48:35.263Z,79.52
2022-11-17T07:51:03.975Z,80.75
2022-11-17T07:53:35.288Z,81.44
2022-11-17T07:56:05.888Z,81.19
2022-11-17T07:58:33.569Z,80.86
2022-11-17T08:01:12.899Z,80.63
2022-11-17T08:03:39.826Z,81.63
2022-11-17T08:06:08.441Z,80.87
2022-11-17T08:08:36.269Z,78.71
2022-11-17T08:11:07.969Z,77.75
2022-11-17T08:13:35.688Z,77.93
2022-11-17T08:16:07.184Z,78.88
2022-11-17T08:18:35.315Z,79.96
2022-11-17T08:21:07.505Z,80.53
2022-11-17T08:23:34.522Z,83.46
2022-11-17T08:26:06.025Z,86.86
2022-11-17T08:28:36.605Z,91.03
2022-11-17T08:31:05.205Z,97.01
2022-11-17T08:33:34.444Z,100.00
2022-11-17T08:36:04.091Z,100.00
2022-11-17T08:38:31.347Z,100.00
2022-11-17T08:40:59.269Z,100.00
2022-11-17T08:43:25.858Z,100.00
2022-11-17T08:45:52.637Z,100.00
2022-11-17T08:48:19.508Z,100.00
2022-11-17T08:50:46.407Z,100.00
2022-11-17T08:53:15.098Z,100.00
2022-11-17T08:55:42.390Z,100.00
2022-11-17T08:58:10.146Z,100.00
2022-11-17T09:00:36.695Z,100.00
2022-11-17T09:03:07.543Z,100.00
2022-11-17T09:05:38.584Z,100.00
2022-11-17T09:08:22.911Z,100.00
2022-11-17T09:10:52.058Z,100.00
2022-11-17T09:13:18.966Z,100.00
2022-11-17T09:15:45.561Z,94.90
2022-11-17T09:18:12.177Z,88.29
2022-11-17T09:20:44.246Z,82.26
2022-11-17T09:23:12.150Z,79.86
2022-11-17T09:25:38.644Z,76.91
2022-11-17T09:28:05.202Z,73.89
2022-11-17T09:30:34.907Z,71.73
2022-11-17T09:33:05.305Z,70.03
2022-11-17T09:35:36.046Z,68.86
2022-11-17T09:38:06.286Z,67.51
2022-11-17T09:40:38.642Z,63.02
2022-11-17T09:43:25.125Z,61.11
2022-11-17T09:45:55.974Z,60.43
2022-11-17T09:48:48.530Z,59.01
2022-11-17T09:51:20.392Z,57.47
2022-11-17T09:53:57.467Z,56.18
2022-11-17T09:59:27.513Z,54.32
2022-11-17T10:01:54.155Z,53.65
2022-11-17T10:04:20.737Z,52.23
2022-11-17T10:06:50.772Z,52.52
2022-11-17T10:09:28.466Z,53.64
2022-11-17T10:12:07.594Z,52.50
2022-11-17T10:14:41.879Z,53.10
2022-11-17T10:17:15.338Z,52.45
2022-11-17T10:19:48.888Z,53.46
2022-11-17T10:22:42.100Z,56.73
2022-11-17T10:25:38.289Z,59.31
2022-11-17T10:28:23.176Z,61.99
2022-11-17T10:31:13.501Z,64.11
2022-11-17T10:33:51.234Z,63.55
2022-11-17T10:36:27.463Z,65.12
2022-11-17T10:38:58.203Z,65.59
2022-11-17T10:41:41.640Z,65.53
2022-11-17T10:44:44.799Z,65.12
2022-11-17T10:47:25.267Z,65.36
2022-11-17T10:50:11.933Z,67.58
2022-11-17T10:52:38.543Z,67.92
2022-11-17T10:55:23.140Z,68.83
2022-11-17T10:58:27.004Z,69.36
2022-11-17T11:01:03.545Z,70.04
2022-11-17T11:03:35.756Z,70.32
2022-11-17T11:06:23.601Z,71.08
2022-11-17T11:09:16.662Z,71.18
2022-11-17T11:11:46.967Z,72.59
2022-11-17T11:14:48.960Z,72.60
2022-11-17T11:17:17.539Z,65.25
2022-11-17T11:19:51.581Z,68.72
2022-11-17T11:22:24.080Z,68.35
2022-11-17T11:25:10.069Z,68.60
2022-11-17T11:27:57.321Z,68.02
2022-11-17T11:30:23.977Z,68.53
2022-11-17T11:33:07.735Z,69.65
2022-11-17T11:35:49.340Z,68.78
2022-11-17T11:38:40.695Z,68.93
2022-11-17T11:41:33.578Z,69.59
2022-11-17T11:44:00.092Z,70.65
2022-11-17T11:47:08.137Z,70.76
2022-11-17T11:49:55.559Z,70.60
2022-11-17T11:52:27.345Z,67.01
2022-11-17T11:54:56.196Z,68.12
2022-11-17T11:57:33.834Z,68.12
2022-11-17T12:00:07.099Z,70.03
2022-11-17T12:02:55.785Z,70.37
2022-11-17T12:05:34.754Z,70.64
2022-11-17T12:08:10.176Z,70.17
2022-11-17T12:10:53.886Z,69.71
2022-11-17T12:13:23.974Z,71.69
2022-11-17T12:15:54.026Z,72.14
2022-11-17T12:18:20.546Z,73.56
2022-11-17T12:21:11.796Z,73.92
2022-11-17T12:23:46.993Z,73.87
2022-11-17T12:26:28.068Z,73.89
2022-11-17T12:29:19.393Z,72.86
2022-11-17T12:31:55.975Z,73.31
2022-11-17T12:34:35.451Z,75.38
2022-11-17T12:37:14.709Z,75.54
2022-11-17T12:40:04.143Z,82.12
2022-11-17T12:42:33.764Z,86.28
2022-11-17T12:45:04.924Z,87.81
2022-11-17T12:47:38.019Z,91.10
2022-11-17T12:50:19.722Z,91.10
2022-11-17T12:53:04.573Z,93.32
2022-11-17T12:55:48.980Z,99.39
2022-11-17T12:58:28.494Z,95.87
2022-11-17T13:01:17.587Z,85.71
2022-11-17T13:03:54.997Z,84.40
2022-11-17T13:06:35.356Z,83.74
2022-11-17T13:09:12.949Z,82.92
2022-11-17T13:11:39.686Z,82.81
2022-11-17T13:14:11.630Z,82.67
2022-11-17T13:16:48.463Z,82.22
2022-11-17T13:19:41.419Z,81.54
2022-11-17T13:22:11.066Z,77.63
2022-11-17T13:24:40.773Z,79.05
2022-11-17T13:27:27.171Z,79.05
2022-11-17T13:30:27.747Z,78.42
2022-11-17T13:32:56.286Z,77.78
2022-11-17T13:35:35.454Z,76.40
2022-11-17T13:38:22.726Z,78.27
2022-11-17T13:40:51.552Z,75.09
2022-11-17T13:43:20.699Z,74.61
2022-11-17T13:45:49.387Z,77.17
2022-11-17T13:48:42.060Z,75.77
2022-11-17T13:51:38.768Z,76.43
2022-11-17T13:54:11.624Z,76.40
2022-11-17T13:56:47.530Z,75.06
2022-11-17T13:59:28.601Z,75.70
2022-11-17T14:02:16.569Z,75.44
2022-11-17T14:05:14.453Z,75.35
2022-11-17T14:07:42.885Z,76.46
2022-11-17T14:10:21.431Z,77.69
2022-11-17T14:12:49.670Z,76.50
2022-11-17T14:15:28.590Z,75.42
2022-11-17T14:17:59.944Z,72.63
2022-11-17T14:20:35.949Z,74.94
2022-11-17T14:23:06.294Z,75.18
2022-11-17T14:25:40.250Z,75.40
2022-11-17T14:28:18.152Z,77.21
2022-11-17T14:30:48.850Z,78.07
2022-11-17T14:33:15.349Z,78.98
2022-11-17T14:35:42.891Z,80.75
2022-11-17T14:38:18.799Z,80.79
2022-11-17T14:40:45.582Z,85.46
2022-11-17T14:43:12.091Z,85.38
2022-11-17T14:45:38.678Z,86.42
2022-11-17T14:48:08.063Z,87.02
2022-11-17T14:50:35.774Z,88.41
2022-11-17T14:53:02.309Z,87.81
2022-11-17T14:55:28.825Z,88.76
2022-11-17T14:57:55.917Z,88.86
2022-11-17T15:00:22.506Z,89.40
2022-11-17T15:02:49.457Z,88.29
2022-11-17T15:05:16.550Z,92.29
2022-11-17T15:07:44.013Z,87.92
2022-11-17T15:10:11.823Z,87.72
2022-11-17T15:12:39.073Z,84.95
2022-11-17T15:15:07.686Z,79.08
2022-11-17T15:17:36.787Z,78.69
2022-11-17T15:20:06.393Z,77.41
2022-11-17T15:22:32.906Z,75.20
2022-11-17T15:24:59.613Z,74.86
2022-11-17T15:27:26.151Z,75.02
2022-11-17T15:29:52.683Z,73.75
2022-11-17T15:32:19.214Z,74.61
2022-11-17T15:34:46.096Z,76.11
2022-11-17T15:37:12.603Z,77.11
2022-11-17T15:39:39.093Z,77.80
2022-11-17T15:42:06.753Z,80.11
2022-11-17T15:44:35.811Z,77.88
2022-11-17T15:47:02.310Z,80.27
2022-11-17T15:49:28.836Z,80.48
2022-11-17T15:51:55.408Z,82.42
2022-11-17T15:54:23.428Z,84.76
2022-11-17T15:56:52.513Z,85.79
2022-11-17T15:59:19.600Z,86.48
2022-11-17T16:01:46.685Z,86.14
2022-11-17T16:04:15.967Z,87.48
2022-11-17T16:06:44.471Z,87.85
2022-11-17T16:09:12.061Z,88.35
2022-11-17T16:11:39.537Z,89.46
2022-11-17T16:14:07.046Z,89.97
2022-11-17T16:16:38.335Z,89.99
2022-11-17T16:19:07.881Z,81.36
2022-11-17T16:21:38.000Z,83.71
2022-11-17T16:24:08.364Z,83.48
2022-11-17T16:26:38.098Z,81.86
2022-11-17T16:29:08.927Z,81.19
2022-11-17T16:31:37.751Z,81.15
2022-11-17T16:34:10.574Z,81.70
2022-11-17T16:36:39.290Z,81.86
2022-11-17T16:39:12.705Z,82.07
2022-11-17T16:41:40.901Z,82.29
2022-11-17T16:44:13.369Z,82.06
2022-11-17T16:46:45.713Z,82.13
2022-11-17T16:49:15.393Z,82.39
2022-11-17T16:51:47.858Z,80.88
2022-11-17T16:54:14.758Z,80.77
2022-11-17T16:56:43.637Z,81.77
2022-11-17T16:59:11.281Z,80.48
2022-11-17T17:01:39.433Z,80.91
2022-11-17T17:04:10.180Z,81.61
2022-11-17T17:06:40.674Z,79.58
2022-11-17T17:09:08.918Z,79.59
2022-11-17T17:11:39.098Z,80.06
2022-11-17T17:14:11.875Z,79.08
2022-11-17T17:16:38.625Z,80.53
2022-11-17T17:19:13.597Z,81.05
2022-11-17T17:21:42.533Z,80.07
2022-11-17T17:24:10.181Z,81.50
2022-11-17T17:26:39.207Z,80.63
2022-11-17T17:29:09.590Z,79.16
2022-11-17T17:31:41.399Z,79.14
2022-11-17T17:34:08.886Z,80.92
2022-11-17T17:36:39.046Z,79.84
2022-11-17T17:39:06.797Z,79.20
2022-11-17T17:41:38.504Z,79.69
2022-11-17T17:44:13.245Z,79.18
2022-11-17T17:46:39.814Z,80.81
2022-11-17T17:49:07.137Z,79.52
2022-11-17T17:51:37.862Z,78.29
2022-11-17T17:54:07.982Z,79.95
2022-11-17T17:56:36.722Z,79.99
2022-11-17T17:59:06.558Z,80.28
2022-11-17T18:01:34.868Z,80.24
2022-11-17T18:04:05.553Z,78.95
2022-11-17T18:06:42.125Z,78.98
2022-11-17T18:09:10.929Z,78.04
2022-11-17T18:11:37.571Z,77.68
2022-11-17T18:14:08.002Z,79.12
2022-11-17T18:16:35.607Z,79.46
2022-11-17T18:19:05.721Z,77.87
2022-11-17T18:21:32.623Z,78.37
2022-11-17T18:24:01.299Z,78.55
2022-11-17T18:26:31.214Z,78.69
2022-11-17T18:29:02.090Z,79.17
2022-11-17T18:31:30.887Z,78.50
2022-11-17T18:34:00.679Z,77.16
2022-11-17T18:36:29.249Z,74.57
2022-11-17T18:38:58.467Z,75.62
2022-11-17T18:41:26.620Z,75.11
2022-11-17T18:43:55.385Z,80.56
2022-11-17T18:46:24.098Z,83.05
2022-11-17T18:48:52.264Z,86.09
2022-11-17T18:51:21.646Z,87.20
2022-11-17T18:53:49.894Z,89.97
2022-11-17T18:56:20.608Z,90.16
2022-11-17T18:58:47.449Z,93.89
2022-11-17T19:01:19.918Z,95.22
2022-11-17T19:03:49.569Z,96.56
2022-11-17T19:06:18.283Z,95.10
2022-11-17T19:08:45.520Z,95.43
2022-11-17T19:11:12.441Z,96.17
2022-11-17T19:13:41.625Z,96.43
2022-11-17T19:16:23.840Z,97.68
2022-11-17T19:18:55.229Z,96.93
2022-11-17T19:21:28.627Z,98.63
2022-11-17T19:23:58.452Z,100.00
2022-11-17T19:26:46.379Z,100.00
2022-11-17T19:29:30.782Z,100.00
2022-11-17T19:31:57.463Z,100.00
2022-11-17T19:34:23.988Z,100.00
2022-11-17T19:36:50.523Z,100.00
2022-11-17T19:39:20.477Z,100.00
2022-11-17T19:41:47.734Z,100.00
2022-11-17T19:44:14.349Z,100.00
2022-11-17T19:46:40.918Z,100.00
2022-11-17T19:49:08.204Z,100.00
2022-11-17T19:51:37.554Z,100.00
2022-11-17T19:54:07.824Z,100.00
2022-11-17T19:56:38.379Z,100.00
2022-11-17T19:59:13.987Z,100.00
2022-11-17T20:01:42.516Z,100.00
2022-11-17T20:04:09.216Z,100.00
2022-11-17T20:06:39.531Z,100.00
2022-11-17T20:09:10.949Z,100.00
2022-11-17T20:11:37.882Z,100.00
2022-11-17T20:14:08.924Z,100.00
2022-11-17T20:16:39.950Z,100.00
2022-11-17T20:19:06.746Z,100.00
2022-11-17T20:21:38.190Z,100.00
2022-11-17T20:24:08.261Z,100.00
2022-11-17T20:26:40.673Z,100.00
2022-11-17T20:29:07.378Z,100.00
2022-11-17T20:31:37.843Z,100.00
2022-11-17T20:34:09.232Z,100.00
2022-11-17T20:36:38.778Z,100.00
2022-11-17T20:39:08.262Z,100.00
2022-11-17T20:41:38.477Z,100.00
2022-11-17T20:44:23.828Z,100.00
2022-11-17T20:46:55.033Z,100.00
2022-11-17T20:49:23.099Z,100.00
2022-11-17T20:51:50.135Z,99.86
2022-11-17T20:54:16.653Z,99.11
2022-11-17T20:56:43.471Z,98.44
2022-11-17T20:59:10.065Z,99.02
2022-11-17T21:01:39.247Z,97.98
2022-11-17T21:04:10.855Z,98.13
2022-11-17T21:06:37.723Z,99.58
2022-11-17T21:09:08.324Z,99.74
2022-11-17T21:11:56.571Z,100.00
2022-11-17T21:14:26.068Z,100.00
2022-11-17T21:16:54.539Z,100.00
2022-11-17T21:19:21.827Z,100.00
2022-11-17T21:21:51.783Z,100.00
2022-11-17T21:24:18.316Z,100.00
2022-11-17T21:26:45.522Z,100.00
2022-11-17T21:29:12.030Z,100.00
2022-11-17T21:31:38.560Z,100.00
2022-11-17T21:34:07.683Z,97.96
2022-11-17T21:36:39.099Z,96.98
2022-11-17T21:39:09.206Z,97.45
2022-11-17T21:41:38.977Z,94.56
2022-11-17T21:44:11.685Z,96.51
2022-11-17T21:46:38.171Z,96.83
2022-11-17T21:49:07.606Z,96.10
2022-11-17T21:51:38.305Z,96.48
2022-11-17T21:54:07.985Z,97.77
2022-11-17T21:56:37.087Z,96.23
2022-11-17T21:59:09.620Z,95.58
2022-11-17T22:01:39.691Z,95.39
2022-11-17T22:04:10.147Z,94.95
2022-11-17T22:06:39.594Z,95.11
2022-11-17T22:09:08.242Z,95.14
2022-11-17T22:11:43.302Z,95.09
2022-11-17T22:14:12.529Z,95.01
2022-11-17T22:16:51.923Z,95.96
2022-11-17T22:19:20.930Z,94.54
2022-11-17T22:21:49.526Z,95.21
2022-11-17T22:24:16.751Z,95.55
2022-11-17T22:26:44.440Z,97.40
2022-11-17T22:29:19.668Z,97.59
2022-11-17T22:31:48.580Z,97.85
2022-11-17T22:34:16.036Z,98.08
2022-11-17T22:36:42.617Z,98.75
2022-11-17T22:39:12.473Z,99.96
2022-11-17T22:41:40.160Z,100.00
2022-11-17T22:44:06.920Z,100.00
2022-11-17T22:46:35.043Z,100.00
2022-11-17T22:49:01.563Z,100.00
2022-11-17T22:51:46.652Z,100.00
2022-11-17T22:54:13.256Z,100.00
2022-11-17T22:56:42.722Z,100.00
2022-11-17T22:59:12.056Z,100.00
2022-11-17T23:01:42.781Z,100.00
2022-11-17T23:04:12.779Z,100.00
2022-11-17T23:06:42.912Z,100.00
2022-11-17T23:09:12.868Z,100.00
2022-11-17T23:11:42.368Z,100.00
2022-11-17T23:14:13.878Z,100.00
2022-11-17T23:16:43.590Z,100.00
2022-11-17T23:19:14.185Z,100.00
2022-11-17T23:21:41.430Z,100.00
2022-11-17T23:24:10.664Z,100.00
2022-11-17T23:26:37.218Z,100.00
2022-11-17T23:29:03.763Z,100.00
2022-11-17T23:31:30.397Z,100.00
2022-11-17T23:33:56.928Z,99.86
2022-11-17T23:36:23.545Z,98.68
2022-11-17T23:38:51.234Z,99.61
2022-11-17T23:41:19.892Z,100.00
2022-11-17T23:43:49.286Z,98.51
2022-11-17T23:46:18.723Z,99.77
2022-11-17T23:48:45.840Z,99.52
2022-11-17T23:51:18.452Z,97.14
2022-11-17T23:53:46.689Z,95.35
2022-11-17T23:56:13.896Z,95.50
2022-11-17T23:58:44.760Z,96.64
